Time;durP1;ratioP1;P1;durP2;ratioP2;P2;SDS_P1;SDS_P2;PMS_P1;PMS_P2;Temp;Humidity;BMP_temperature;BMP_pressure;BME280_temperature;BME280_humidity;BME280_pressure;Samples;Min_cycle;Max_cycle;Signal;HPM_P1;HPM_P2
2023/02/23 00:01:41;;;;;;;42.85;30.58;;;;;;;11.46;72.71;99449.00;4993457;28;20062;-79
2023/02/23 00:04:08;;;;;;;44.83;30.05;;;;;;;11.46;72.84;99441.97;4993026;28;20057;-78
2023/02/23 00:06:35;;;;;;;45.70;30.63;;;;;;;11.47;72.77;99445.44;4992555;28;20046;-79
2023/02/23 00:09:26;;;;;;;48.38;32.33;;;;;;;11.47;72.82;99448.06;4975595;28;20050;-78
2023/02/23 00:11:55;;;;;;;46.58;31.45;;;;;;;11.47;72.56;99448.06;4992994;28;20043;-78
2023/02/23 00:14:27;;;;;;;48.45;32.50;;;;;;;11.46;72.53;99449.88;4993101;28;20097;-78
2023/02/23 00:16:58;;;;;;;45.30;30.83;;;;;;;11.46;72.45;99451.66;4992271;28;20081;-80
2023/02/23 00:19:25;;;;;;;51.28;32.10;;;;;;;11.46;72.57;99449.88;4992941;28;20286;-79
2023/02/23 00:21:53;;;;;;;42.78;31.10;;;;;;;11.46;72.57;99456.91;4992751;28;20050;-80
2023/02/23 00:24:20;;;;;;;51.45;33.33;;;;;;;11.45;72.77;99453.44;4992527;28;20050;-80
2023/02/23 00:26:50;;;;;;;53.45;32.50;;;;;;;11.44;72.80;99458.81;4992154;28;20050;-77
2023/02/23 00:29:19;;;;;;;52.33;35.17;;;;;;;11.43;72.75;99455.34;4992643;28;20097;-78
2023/02/23 00:31:47;;;;;;;52.35;34.53;;;;;;;11.45;72.80;99460.50;4992768;28;20138;-79
2023/02/23 00:34:20;;;;;;;48.15;33.05;;;;;;;11.43;72.73;99450.06;4992550;28;20054;-78
2023/02/23 00:36:55;;;;;;;55.35;34.08;;;;;;;11.41;72.56;99451.13;4991704;28;20137;-77
2023/02/23 00:39:27;;;;;;;53.53;33.53;;;;;;;11.44;72.72;99451.75;4992541;28;20046;-80
2023/02/23 00:41:55;;;;;;;52.17;33.33;;;;;;;11.43;72.81;99447.44;4975355;28;20054;-78
2023/02/23 00:44:23;;;;;;;50.38;34.45;;;;;;;11.40;72.83;99444.16;4992174;28;20057;-78
2023/02/23 00:46:50;;;;;;;50.85;34.47;;;;;;;11.40;72.67;99450.25;4991545;28;20640;-78
2023/02/23 00:49:19;;;;;;;49.75;33.13;;;;;;;11.40;72.92;99452.06;4992411;28;20054;-78
2023/02/23 00:51:46;;;;;;;54.70;35.13;;;;;;;11.41;72.96;99456.38;4975083;28;20097;-78
2023/02/23 00:54:15;;;;;;;51.60;33.00;;;;;;;11.40;73.13;99449.44;4974978;28;20137;-79
2023/02/23 00:56:42;;;;;;;49.60;32.92;;;;;;;11.42;73.04;99453.66;4974066;28;20054;-78
2023/02/23 00:59:09;;;;;;;53.00;32.92;;;;;;;11.43;73.16;99454.47;4992196;28;20054;-79
2023/02/23 01:01:40;;;;;;;53.95;35.15;;;;;;;11.44;73.04;99450.91;4991910;28;20435;-78
2023/02/23 01:04:08;;;;;;;50.50;34.55;;;;;;;11.45;73.09;99449.97;4992525;28;20058;-78
2023/02/23 01:06:38;;;;;;;55.72;36.42;;;;;;;11.46;73.04;99454.28;4991158;28;20479;-79
2023/02/23 01:09:14;;;;;;;57.22;36.75;;;;;;;11.44;72.69;99453.56;4992213;28;20097;-78
2023/02/23 01:11:41;;;;;;;58.67;36.50;;;;;;;11.46;72.93;99454.28;4991932;28;20130;-79
2023/02/23 01:14:09;;;;;;;54.20;36.28;;;;;;;11.45;72.99;99463.97;4991788;28;20145;-79
2023/02/23 01:16:37;;;;;;;57.13;36.28;;;;;;;11.45;73.06;99463.97;4991195;28;20050;-78
2023/02/23 01:19:04;;;;;;;56.50;36.15;;;;;;;11.44;72.90;99457.00;4991997;28;20051;-78
2023/02/23 01:21:34;;;;;;;50.20;34.13;;;;;;;11.43;73.06;99457.97;4991300;28;20058;-77
2023/02/23 01:24:01;;;;;;;57.15;36.55;;;;;;;11.46;73.01;99454.28;4991659;28;20132;-78
2023/02/23 01:26:30;;;;;;;57.25;34.72;;;;;;;11.45;72.95;99452.59;4991100;28;20535;-78
2023/02/23 01:29:00;;;;;;;54.92;36.03;;;;;;;11.45;72.88;99447.34;4991477;28;20052;-78
2023/02/23 01:31:28;;;;;;;55.45;35.70;;;;;;;11.46;72.92;99456.91;4991585;28;20522;-80
2023/02/23 01:33:57;;;;;;;52.63;34.75;;;;;;;11.45;73.05;99450.78;4991819;28;20077;-79
2023/02/23 01:36:24;;;;;;;55.63;36.35;;;;;;;11.46;73.01;99447.22;4991116;28;20137;-78
2023/02/23 01:38:55;;;;;;;51.63;33.50;;;;;;;11.45;73.21;99453.44;4991144;28;20487;-78
2023/02/23 01:41:27;;;;;;;56.60;34.33;;;;;;;11.44;72.90;99449.09;4991490;28;20054;-78
2023/02/23 01:44:20;;;;;;;48.22;32.30;;;;;;;11.43;72.69;99449.22;4991625;28;20047;-80
2023/02/23 01:46:49;;;;;;;54.25;33.70;;;;;;;11.50;73.16;99444.38;4960767;28;20093;-77
2023/02/23 01:49:21;;;;;;;48.85;33.15;;;;;;;11.47;72.81;99441.00;4974118;28;20093;-79
2023/02/23 01:52:01;;;;;;;50.85;34.45;;;;;;;11.50;73.02;99447.88;4991580;28;20050;-78
2023/02/23 01:54:36;;;;;;;54.85;34.55;;;;;;;11.49;72.77;99446.19;4991461;28;20141;-79
2023/02/23 01:57:05;;;;;;;56.83;33.83;;;;;;;11.51;73.04;99446.09;4990365;28;20521;-79
2023/02/23 01:59:40;;;;;;;52.38;34.42;;;;;;;11.48;72.86;99441.88;4991427;28;20069;-77
2023/02/23 02:02:06;;;;;;;53.53;33.33;;;;;;;11.51;73.14;99446.91;4991485;28;20054;-79
2023/02/23 02:04:44;;;;;;;54.95;34.55;;;;;;;11.51;73.31;99440.81;4991098;28;20499;-78
2023/02/23 02:07:14;;;;;;;52.22;33.50;;;;;;;11.51;73.12;99446.91;4990161;28;20400;-78
2023/02/23 02:10:38;;;;;;;49.88;33.08;;;;;;;11.51;73.31;99436.38;4990070;28;20058;-78
2023/02/23 02:12:30;;;;;;;53.70;34.65;;;;;;;11.52;73.26;99440.72;4990866;28;20050;-78
2023/02/23 02:14:58;;;;;;;47.50;31.75;;;;;;;11.52;73.01;99437.22;4990867;28;20601;-79
2023/02/23 02:17:37;;;;;;;50.85;32.10;;;;;;;11.49;72.86;99438.28;4990591;28;20388;-79
2023/02/23 02:20:31;;;;;;;54.80;36.65;;;;;;;11.52;73.06;99446.00;4990929;28;20479;-79
2023/02/23 02:23:30;;;;;;;51.42;33.58;;;;;;;11.50;72.79;99439.97;4991224;28;20109;-77
2023/02/23 02:25:56;;;;;;;49.90;33.22;;;;;;;11.55;73.32;99437.03;4990771;28;20104;-80
2023/02/23 02:28:29;;;;;;;58.38;36.15;;;;;;;11.55;73.23;99442.31;4990539;28;20419;-77
2023/02/23 02:31:05;;;;;;;53.38;34.70;;;;;;;11.55;73.36;99434.41;4973810;28;20058;-77
2023/02/23 02:33:59;;;;;;;52.25;35.45;;;;;;;11.51;72.90;99436.38;4993369;28;20093;-78
2023/02/23 02:37:03;;;;;;;51.17;35.05;;;;;;;11.52;72.94;99429.31;4994464;28;20480;-78
2023/02/23 02:39:35;;;;;;;50.78;32.70;;;;;;;11.54;72.84;99425.63;4994533;28;20145;-78
2023/02/23 02:42:34;;;;;;;53.85;32.97;;;;;;;11.52;72.90;99430.19;4994994;28;20109;-80
2023/02/23 02:45:20;;;;;;;54.97;34.28;;;;;;;11.52;72.79;99429.31;4994315;28;20133;-77
2023/02/23 02:48:25;;;;;;;52.13;33.72;;;;;;;11.52;72.87;99426.69;4994461;28;20534;-79
2023/02/23 02:50:57;;;;;;;52.03;33.90;;;;;;;11.52;72.98;99429.31;4951395;28;20050;-77
2023/02/23 02:54:05;;;;;;;54.60;35.17;;;;;;;11.46;72.55;99420.03;4994665;28;20058;-78
2023/02/23 02:56:39;;;;;;;54.47;35.17;;;;;;;11.45;72.64;99421.81;4994052;28;20108;-79
2023/02/23 04:18:16;;;;;;;63.92;39.72;;;;;;;10.94;74.61;99439.13;4992613;28;20148;-78
2023/02/23 04:20:43;;;;;;;62.63;40.30;;;;;;;10.95;74.66;99439.94;4992933;28;20054;-78
2023/02/23 04:23:10;;;;;;;66.70;41.08;;;;;;;10.96;74.82;99449.56;4992862;28;20054;-78
2023/02/23 04:25:37;;;;;;;67.88;41.80;;;;;;;10.97;74.87;99440.72;4992457;28;20121;-77
2023/02/23 04:28:03;;;;;;;63.40;39.50;;;;;;;10.98;74.82;99449.47;4992267;28;20050;-78
2023/02/23 04:30:30;;;;;;;63.95;41.35;;;;;;;11.00;74.96;99448.44;4992843;28;20058;-78
2023/02/23 04:32:58;;;;;;;66.72;41.00;;;;;;;11.01;75.01;99447.47;4992863;28;20050;-77
2023/02/23 04:35:27;;;;;;;65.13;40.55;;;;;;;11.04;74.79;99447.28;4992315;28;20546;-78
2023/02/23 04:37:54;;;;;;;58.65;36.58;;;;;;;11.06;74.86;99445.41;4992135;28;20046;-78
2023/02/23 04:40:21;;;;;;;65.47;39.35;;;;;;;11.07;74.70;99448.88;4992569;28;20096;-79
2023/02/23 04:42:49;;;;;;;68.15;41.88;;;;;;;11.10;74.70;99453.09;4992713;28;20406;-78
2023/02/23 04:45:16;;;;;;;65.05;40.53;;;;;;;11.12;74.80;99456.47;4992112;28;20054;-78
2023/02/23 04:47:43;;;;;;;61.60;41.00;;;;;;;11.13;74.89;99458.16;4992094;28;20054;-78
2023/02/23 04:50:11;;;;;;;61.13;38.63;;;;;;;11.15;74.59;99461.56;4992424;28;20146;-77
2023/02/23 04:52:37;;;;;;;64.82;40.28;;;;;;;11.16;74.72;99457.97;4992222;28;20046;-77
2023/02/23 04:55:06;;;;;;;64.28;40.78;;;;;;;11.16;74.78;99463.25;4991093;28;20046;-77
2023/02/23 04:57:33;;;;;;;63.55;40.65;;;;;;;11.18;74.62;99466.63;4974470;28;20050;-78
2023/02/23 05:00:00;;;;;;;65.80;40.97;;;;;;;11.18;74.86;99461.38;4975165;28;20056;-79
2023/02/23 05:02:27;;;;;;;66.07;40.80;;;;;;;11.18;74.45;99464.00;4974839;28;20056;-77
2023/02/23 05:04:54;;;;;;;64.90;40.92;;;;;;;11.19;74.43;99470.94;4990313;28;20050;-78
2023/02/23 05:07:20;;;;;;;62.97;39.00;;;;;;;11.18;74.43;99466.63;4991321;28;20046;-78
2023/02/23 05:09:47;;;;;;;66.40;40.15;;;;;;;11.17;74.42;99465.78;4991963;28;20085;-78
2023/02/23 05:14:50;;;;;;;62.83;37.22;;;;;;;11.19;74.34;99468.31;5024118;23;20050;-79
2023/02/23 05:17:17;;;;;;;70.85;40.42;;;;;;;11.19;74.46;99468.31;5013899;28;20045;-79
2023/02/23 05:19:43;;;;;;;63.42;37.60;;;;;;;11.19;74.39;99468.31;5008715;28;20148;-79
2023/02/23 05:22:11;;;;;;;65.75;39.63;;;;;;;11.19;74.23;99473.59;5014439;28;20045;-79
2023/02/23 05:24:41;;;;;;;68.57;39.10;;;;;;;11.17;73.85;99472.81;5030534;28;20055;-79
2023/02/23 05:27:09;;;;;;;62.45;38.00;;;;;;;11.18;74.07;99477.16;5030592;28;20053;-79
2023/02/23 05:29:35;;;;;;;58.83;36.08;;;;;;;11.18;74.02;99469.28;5030522;28;20041;-80
2023/02/23 05:32:02;;;;;;;65.30;39.03;;;;;;;11.16;74.11;99476.41;5011256;28;20050;-79
2023/02/23 05:34:29;;;;;;;65.20;37.10;;;;;;;11.16;74.07;99472.00;5013861;28;20050;-79
2023/02/23 05:36:55;;;;;;;58.50;36.67;;;;;;;11.16;74.09;99473.78;4985698;28;20060;-79
2023/02/23 05:39:22;;;;;;;63.40;38.92;;;;;;;11.14;74.08;99473.88;4991471;28;20570;-79
2023/02/23 05:41:49;;;;;;;65.72;38.05;;;;;;;11.15;74.16;99474.72;4991459;28;20065;-79
2023/02/23 05:44:15;;;;;;;58.67;36.80;;;;;;;11.14;74.12;99473.03;4991591;28;20046;-79
2023/02/23 05:46:44;;;;;;;59.15;36.35;;;;;;;11.13;74.04;99474.81;5010202;28;20050;-79
2023/02/23 05:49:11;;;;;;;62.25;37.85;;;;;;;11.13;74.11;99474.81;5006672;28;20050;-79
2023/02/23 05:51:38;;;;;;;64.75;37.50;;;;;;;11.14;74.24;99470.41;5011012;28;20651;-79
2023/02/23 05:54:05;;;;;;;61.10;36.30;;;;;;;11.14;74.25;99470.41;5011214;28;20144;-79
2023/02/23 05:56:32;;;;;;;59.33;36.15;;;;;;;11.15;74.30;99472.09;5010751;28;20050;-78
2023/02/23 05:58:58;;;;;;;62.20;37.95;;;;;;;11.14;74.17;99465.97;5010988;28;20127;-79
2023/02/23 06:01:26;;;;;;;66.10;37.80;;;;;;;11.14;73.96;99467.78;5011067;28;20145;-79
2023/02/23 06:03:52;;;;;;;65.22;37.53;;;;;;;11.14;74.16;99470.41;5011199;28;20046;-79
2023/02/23 06:06:19;;;;;;;62.35;36.28;;;;;;;11.13;74.14;99469.56;5009998;28;20054;-79
2023/02/23 06:08:46;;;;;;;55.47;34.83;;;;;;;11.13;74.01;99466.06;5010599;28;20046;-79
2023/02/23 06:11:12;;;;;;;64.63;37.05;;;;;;;11.13;73.79;99474.81;5009197;28;20491;-79
2023/02/23 06:13:40;;;;;;;57.40;34.25;;;;;;;11.10;73.67;99475.00;5011767;28;20518;-79
2023/02/23 06:16:07;;;;;;;57.63;32.47;;;;;;;11.09;73.79;99478.59;5008350;28;20074;-79
2023/02/23 06:18:34;;;;;;;66.90;37.25;;;;;;;11.08;73.74;99477.75;5007211;28;20045;-79
2023/02/23 06:21:02;;;;;;;69.18;37.08;;;;;;;11.06;73.80;99481.41;5010413;28;20057;-79
2023/02/23 06:23:30;;;;;;;62.42;36.08;;;;;;;11.05;73.93;99485.84;5010660;28;20458;-79
2023/02/23 06:25:58;;;;;;;65.18;37.55;;;;;;;11.05;73.83;99487.63;5010211;28;20054;-79
2023/02/23 06:28:26;;;;;;;65.55;36.47;;;;;;;11.03;73.92;99489.53;5010339;28;20049;-79
2023/02/23 06:30:53;;;;;;;64.57;35.80;;;;;;;11.02;73.86;99495.72;5006049;28;20133;-79
2023/02/23 06:33:21;;;;;;;62.55;35.20;;;;;;;11.02;74.00;99495.72;5008603;28;20108;-78
2023/02/23 06:35:48;;;;;;;59.45;34.83;;;;;;;11.01;74.29;99497.53;5010447;28;20108;-79
2023/02/23 06:38:14;;;;;;;66.10;36.60;;;;;;;11.00;74.13;99506.38;5010395;28;20053;-77
2023/02/23 06:40:42;;;;;;;72.30;39.78;;;;;;;11.00;73.87;99500.25;5010653;28;20406;-78
2023/02/23 06:43:08;;;;;;;69.18;38.80;;;;;;;11.00;74.13;99497.63;5010642;28;20058;-78
2023/02/23 06:45:36;;;;;;;69.28;37.45;;;;;;;10.97;73.83;99503.94;5010045;28;20065;-78
2023/02/23 06:48:04;;;;;;;73.78;40.53;;;;;;;10.99;74.11;99507.28;5010044;28;20112;-78
2023/02/23 06:50:30;;;;;;;75.22;40.25;;;;;;;10.98;74.03;99505.59;5010351;28;20417;-78
2023/02/23 06:52:57;;;;;;;78.18;41.00;;;;;;;10.98;74.08;99510.88;5010513;28;20049;-79
2023/02/23 06:55:24;;;;;;;77.35;38.92;;;;;;;10.97;74.01;99511.81;5010035;28;20523;-79
2023/02/23 06:57:53;;;;;;;79.03;39.70;;;;;;;10.97;74.08;99511.81;5010127;28;20050;-79
2023/02/23 07:00:20;;;;;;;69.90;36.92;;;;;;;10.95;74.06;99517.19;5010331;28;20116;-79
2023/02/23 07:02:47;;;;;;;68.40;37.33;;;;;;;10.95;74.10;99511.91;5010217;28;20502;-79
2023/02/23 07:05:14;;;;;;;78.75;39.70;;;;;;;10.95;74.20;99513.69;5009748;28;20050;-79
2023/02/23 07:07:40;;;;;;;76.18;37.83;;;;;;;10.94;74.09;99517.28;5001067;28;20057;-79
2023/02/23 07:10:07;;;;;;;77.60;39.05;;;;;;;10.94;74.15;99522.53;5010225;28;20465;-79
2023/02/23 07:12:34;;;;;;;81.93;40.20;;;;;;;10.94;74.25;99514.66;5010347;28;20058;-79
2023/02/23 07:15:00;;;;;;;74.05;38.35;;;;;;;10.94;74.23;99523.41;5004185;28;20064;-79
2023/02/23 07:17:27;;;;;;;74.07;38.80;;;;;;;10.94;74.13;99530.44;5010116;28;20077;-79
2023/02/23 07:19:53;;;;;;;72.50;37.60;;;;;;;10.94;74.32;99533.94;5012877;28;20137;-79
2023/02/23 07:22:21;;;;;;;70.60;36.20;;;;;;;10.96;74.24;99539.13;5013804;28;20137;-79
2023/02/23 07:24:47;;;;;;;69.95;36.30;;;;;;;10.95;74.28;99534.75;5005957;28;20065;-79
2023/02/23 07:27:14;;;;;;;83.70;40.63;;;;;;;10.95;74.18;99538.25;5013184;28;20045;-79
2023/02/23 07:29:41;;;;;;;80.40;39.78;;;;;;;10.96;74.28;99541.75;5013584;28;20076;-79
2023/02/23 07:32:07;;;;;;;83.70;40.63;;;;;;;10.97;74.14;99537.31;5013634;28;20145;-79
2023/02/23 07:34:34;;;;;;;87.95;42.83;;;;;;;10.96;74.30;99541.75;4992747;28;20671;-79
2023/02/23 07:37:00;;;;;;;85.20;43.50;;;;;;;10.96;74.19;99541.75;5008347;28;20058;-79
2023/02/23 07:39:27;;;;;;;82.47;41.55;;;;;;;10.97;74.33;99543.44;5013358;28;20136;-79
2023/02/23 07:41:53;;;;;;;77.53;39.83;;;;;;;10.99;74.31;99540.69;5013351;28;20136;-78
2023/02/23 07:44:20;;;;;;;86.75;42.80;;;;;;;10.98;74.42;99545.13;5013135;28;20060;-79
2023/02/23 07:46:47;;;;;;;72.65;37.85;;;;;;;10.99;74.33;99546.81;5012337;28;20138;-78
2023/02/23 07:49:13;;;;;;;72.88;36.38;;;;;;;11.00;74.47;99547.66;5013272;28;20136;-79
2023/02/23 07:51:40;;;;;;;73.15;36.55;;;;;;;11.01;74.34;99555.47;5013106;28;20057;-79
2023/02/23 07:54:07;;;;;;;78.68;39.15;;;;;;;11.02;74.35;99557.16;5013152;28;20049;-79
2023/02/23 07:56:34;;;;;;;84.57;40.95;;;;;;;11.03;74.23;99563.28;5011001;28;20133;-79
2023/02/23 07:59:01;;;;;;;85.43;41.83;;;;;;;11.03;74.13;99563.28;5012949;28;20062;-79
2023/02/23 08:01:28;;;;;;;82.03;40.50;;;;;;;11.03;74.07;99573.81;5013071;28;20050;-79
2023/02/23 08:03:54;;;;;;;83.43;41.53;;;;;;;11.02;74.34;99566.81;5013008;28;20065;-79
2023/02/23 08:06:21;;;;;;;80.60;42.20;;;;;;;11.01;74.19;99573.91;5012301;28;20089;-79
2023/02/23 08:08:48;;;;;;;77.88;39.13;;;;;;;11.01;74.26;99568.63;5005098;28;20505;-79
2023/02/23 08:11:14;;;;;;;86.05;42.20;;;;;;;11.02;74.22;99572.09;5011524;28;20054;-79
2023/02/23 08:13:41;;;;;;;80.53;41.08;;;;;;;11.03;74.32;99579.91;5012796;28;20046;-79
2023/02/23 08:16:08;;;;;;;78.55;41.00;;;;;;;11.02;74.32;99578.22;5012510;28;20049;-79
2023/02/23 08:18:34;;;;;;;81.68;41.58;;;;;;;11.03;74.40;99585.19;5012187;28;20046;-79
2023/02/23 08:21:02;;;;;;;72.43;38.83;;;;;;;11.02;74.19;99577.38;5012664;28;20487;-79
2023/02/23 08:23:31;;;;;;;81.15;41.15;;;;;;;11.02;74.34;99583.50;5012556;28;20064;-79
2023/02/23 08:25:58;;;;;;;81.72;40.47;;;;;;;11.02;74.28;99582.63;5005938;28;20081;-79
2023/02/23 08:28:26;;;;;;;78.18;40.47;;;;;;;11.02;74.39;99585.25;5012541;28;20054;-78
2023/02/23 08:30:53;;;;;;;74.47;37.95;;;;;;;11.02;74.44;99587.91;5012304;28;20478;-79
2023/02/23 08:33:20;;;;;;;75.82;40.03;;;;;;;11.02;74.61;99582.63;5012501;28;20423;-79
2023/02/23 08:35:47;;;;;;;74.47;39.05;;;;;;;11.02;74.71;99586.13;5012020;28;20656;-79
2023/02/23 08:38:15;;;;;;;76.78;39.00;;;;;;;11.05;74.68;99583.31;5011849;28;20128;-79
2023/02/23 08:40:42;;;;;;;77.63;39.58;;;;;;;11.06;74.75;99584.13;5012694;28;20064;-78
2023/02/23 08:43:09;;;;;;;73.90;37.70;;;;;;;11.06;74.64;99576.22;5012386;28;20042;-78
2023/02/23 08:45:38;;;;;;;80.38;39.20;;;;;;;11.08;74.74;99585.75;5003869;28;20503;-79
2023/02/23 08:48:07;;;;;;;76.28;38.83;;;;;;;11.10;74.72;99590.91;5011620;28;20177;-78
2023/02/23 08:50:34;;;;;;;76.25;39.00;;;;;;;11.13;74.89;99593.38;5012079;28;20062;-79
2023/02/23 08:53:00;;;;;;;76.38;37.13;;;;;;;11.15;74.84;99591.50;5011928;28;20132;-79
2023/02/23 08:55:27;;;;;;;78.43;38.40;;;;;;;11.17;74.72;99594.88;5011669;28;20054;-79
2023/02/23 08:57:53;;;;;;;78.70;38.67;;;;;;;11.19;74.75;99587.72;5011723;28;20060;-79
2023/02/23 09:00:20;;;;;;;81.80;39.63;;;;;;;11.20;74.61;99591.19;5012062;28;20148;-79
2023/02/23 09:02:47;;;;;;;75.32;37.97;;;;;;;11.20;74.67;99588.56;5011807;28;20465;-78
2023/02/23 09:05:14;;;;;;;77.38;38.60;;;;;;;11.21;74.64;99592.88;5011459;28;20060;-79
2023/02/23 09:07:43;;;;;;;75.80;37.67;;;;;;;11.22;74.64;99597.22;5002937;28;20136;-79
2023/02/23 09:10:15;;;;;;;79.18;39.25;;;;;;;11.21;74.41;99598.16;5011833;28;20062;-79
2023/02/23 09:12:42;;;;;;;77.22;37.00;;;;;;;11.24;74.55;99595.31;5011922;28;20072;-79
2023/02/23 09:15:09;;;;;;;82.57;38.28;;;;;;;11.25;74.47;99596.19;5011151;28;20148;-78
2023/02/23 09:17:36;;;;;;;79.35;37.78;;;;;;;11.24;74.37;99605.88;5003425;28;20499;-79
2023/02/23 09:20:04;;;;;;;78.60;40.72;;;;;;;11.23;74.25;99601.53;5011516;28;20058;-79
2023/02/23 09:22:31;;;;;;;78.60;38.85;;;;;;;11.23;74.18;99600.69;5011702;28;20061;-79
2023/02/23 09:24:58;;;;;;;88.57;40.00;;;;;;;11.21;74.29;99603.41;5011291;28;20054;-79
2023/02/23 09:27:24;;;;;;;75.60;38.90;;;;;;;11.19;74.23;99603.53;5011051;28;20375;-79
2023/02/23 09:29:51;;;;;;;83.15;38.60;;;;;;;11.19;74.29;99610.59;5011261;28;20060;-79
2023/02/23 09:32:17;;;;;;;77.78;37.45;;;;;;;11.17;74.40;99610.66;5011352;28;20406;-78
2023/02/23 09:34:44;;;;;;;80.90;36.45;;;;;;;11.18;74.52;99619.44;5011008;28;20064;-78
2023/02/23 09:37:10;;;;;;;79.40;36.47;;;;;;;11.17;74.51;99620.34;5010929;28;20111;-79
2023/02/23 09:39:37;;;;;;;85.65;37.50;;;;;;;11.17;74.54;99613.31;5011318;28;20054;-78
2023/02/23 09:43:00;;;;;;;72.93;35.78;;;;;;;11.13;74.12;99622.34;5010811;28;20057;-79
2023/02/23 09:45:48;;;;;;;72.80;33.70;;;;;;;11.19;74.41;99621.13;4910607;29;20150;-78
2023/02/23 09:48:18;;;;;;;80.90;34.28;;;;;;;11.20;74.71;99621.03;5010981;28;20054;-79
2023/02/23 09:50:51;;;;;;;72.32;32.15;;;;;;;11.19;74.31;99623.75;5011133;28;20053;-79
2023/02/23 09:53:30;;;;;;;74.78;33.42;;;;;;;11.17;74.11;99623.00;5011098;28;20783;-79
2023/02/23 09:56:02;;;;;;;71.47;32.30;;;;;;;11.20;74.64;99626.28;5010805;28;20053;-79
2023/02/23 09:58:32;;;;;;;72.22;32.40;;;;;;;11.20;74.53;99622.81;5010747;28;20593;-78
2023/02/23 10:01:17;;;;;;;79.88;33.70;;;;;;;11.17;74.10;99633.53;5011028;28;20062;-79
2023/02/23 10:03:53;;;;;;;73.40;32.70;;;;;;;11.20;74.35;99628.06;5010825;28;20060;-79
2023/02/23 10:06:20;;;;;;;67.38;30.80;;;;;;;11.21;74.91;99633.25;5010663;28;20049;-79
2023/02/23 10:09:29;;;;;;;66.97;31.17;;;;;;;11.17;74.35;99642.28;5010360;28;20548;-79
2023/02/23 10:12:10;;;;;;;54.05;27.95;;;;;;;11.20;74.29;99643.88;5005718;28;20054;-79
2023/02/23 10:15:05;;;;;;;58.08;27.90;;;;;;;11.21;74.30;99645.56;5010509;28;20061;-79
2023/02/23 10:17:43;;;;;;;58.70;27.77;;;;;;;11.20;74.20;99643.88;5010359;28;20058;-79
2023/02/23 10:20:18;;;;;;;56.83;27.13;;;;;;;11.21;74.33;99650.84;5010757;28;20049;-79
2023/02/23 10:22:48;;;;;;;55.22;26.48;;;;;;;11.20;74.33;99649.16;5010776;28;20253;-79
2023/02/23 10:25:25;;;;;;;52.13;24.55;;;;;;;11.16;74.09;99645.00;5010480;28;20066;-79
2023/02/23 10:27:54;;;;;;;53.30;24.30;;;;;;;11.18;74.64;99641.34;5010376;28;20046;-78
2023/02/23 10:30:27;;;;;;;55.00;24.75;;;;;;;11.16;74.53;99642.38;5010844;28;20058;-79
2023/02/23 10:33:15;;;;;;;53.95;25.85;;;;;;;11.16;74.60;99637.97;5010730;28;20090;-79
2023/02/23 10:35:43;;;;;;;52.42;24.00;;;;;;;11.21;75.25;99637.66;5010295;28;20062;-79
2023/02/23 10:38:17;;;;;;;51.38;24.30;;;;;;;11.22;74.81;99631.47;5010429;28;20082;-79
2023/02/23 10:40:52;;;;;;;49.03;24.33;;;;;;;11.27;75.06;99629.41;5010801;28;20049;-79
2023/02/23 10:43:19;;;;;;;46.47;23.55;;;;;;;11.35;75.72;99634.19;5007291;28;20466;-79
2023/02/23 10:45:50;;;;;;;46.78;23.17;;;;;;;11.38;75.34;99641.06;5010199;28;20050;-79
2023/02/23 10:48:29;;;;;;;47.20;24.00;;;;;;;11.40;75.04;99637.38;5010308;28;20049;-79
2023/02/23 10:51:01;;;;;;;47.58;23.52;;;;;;;11.49;75.35;99640.38;5010736;28;20100;-79
2023/02/23 10:53:37;;;;;;;43.80;23.40;;;;;;;11.52;74.89;99635.78;5011147;28;20410;-78
2023/02/23 10:56:09;;;;;;;45.22;23.27;;;;;;;11.57;74.67;99638.97;5013756;28;20096;-79
2023/02/23 10:58:45;;;;;;;46.88;22.65;;;;;;;11.59;74.24;99644.16;5001373;28;20060;-79
2023/02/23 11:01:14;;;;;;;40.38;21.90;;;;;;;11.62;74.51;99640.47;5017281;28;20054;-79
2023/02/23 11:03:51;;;;;;;40.55;22.15;;;;;;;11.62;74.45;99643.09;5015033;28;20115;-79
2023/02/23 11:06:38;;;;;;;42.45;21.42;;;;;;;11.62;74.07;99643.09;5033331;28;20081;-79
2023/02/23 11:09:28;;;;;;;35.60;20.55;;;;;;;11.57;73.40;99646.00;5034065;28;20413;-79
2023/02/23 11:15:42;;;;;;;33.40;18.70;;;;;;;11.62;74.27;99645.75;4979108;23;20052;-79
2023/02/23 11:18:22;;;;;;;35.58;18.33;;;;;;;11.57;73.86;99643.38;5013442;28;20052;-80
2023/02/23 11:20:50;;;;;;;36.30;18.17;;;;;;;11.58;74.18;99651.19;5013506;28;20053;-79
2023/02/23 11:23:27;;;;;;;34.50;18.10;;;;;;;11.55;73.50;99648.75;5013596;28;20088;-79
2023/02/23 11:26:01;;;;;;;33.55;18.85;;;;;;;11.55;74.09;99648.75;5013319;28;20053;-79
2023/02/23 11:28:41;;;;;;;34.10;19.27;;;;;;;11.52;73.58;99650.75;5013387;28;20076;-80
2023/02/23 11:31:14;;;;;;;36.85;19.48;;;;;;;11.56;74.40;99650.44;5013644;28;20133;-79
2023/02/23 11:33:41;;;;;;;33.13;18.10;;;;;;;11.57;74.55;99648.66;4996314;28;20050;-79
2023/02/23 11:36:24;;;;;;;32.22;19.35;;;;;;;11.55;73.79;99646.09;5013239;28;20053;-80
2023/02/23 11:39:05;;;;;;;31.05;18.15;;;;;;;11.56;73.94;99642.53;5013387;28;20056;-79
2023/02/23 11:41:34;;;;;;;32.28;18.17;;;;;;;11.63;74.84;99634.25;4996000;28;20046;-79
2023/02/23 11:44:02;;;;;;;30.05;17.48;;;;;;;11.66;74.85;99634.06;5013193;28;20046;-79
2023/02/23 11:46:35;;;;;;;32.15;16.77;;;;;;;11.68;74.50;99627.75;5012915;28;20057;-79
2023/02/23 11:49:05;;;;;;;27.02;15.02;;;;;;;11.71;74.07;99631.97;5013144;28;20100;-80
2023/02/23 11:51:38;;;;;;;24.90;15.00;;;;;;;11.71;73.79;99627.53;5013315;28;20670;-79
2023/02/23 11:54:09;;;;;;;21.30;13.50;;;;;;;11.74;74.29;99629.13;5013260;28;20072;-80
2023/02/23 11:56:35;;;;;;;26.30;15.00;;;;;;;11.74;73.99;99631.78;5012594;28;20112;-79
2023/02/23 11:59:07;;;;;;;23.75;14.75;;;;;;;11.71;73.48;99632.78;5013149;28;20061;-79
2023/02/23 12:01:40;;;;;;;23.17;14.05;;;;;;;11.70;73.59;99630.28;5013303;28;20068;-79
2023/02/23 12:04:08;;;;;;;21.92;13.20;;;;;;;11.70;73.80;99630.28;5012833;28;20058;-79
2023/02/23 12:06:40;;;;;;;26.05;13.57;;;;;;;11.67;73.45;99631.28;5011660;28;20079;-80
2023/02/23 12:09:11;;;;;;;25.63;14.77;;;;;;;11.66;73.65;99632.25;5013138;28;20068;-80
2023/02/23 12:11:43;;;;;;;22.85;13.70;;;;;;;11.67;73.86;99635.75;5013057;28;20085;-79
2023/02/23 12:14:17;;;;;;;;;;;;;;;11.67;73.21;99633.09;4996002;28;20775;-79
2023/02/23 12:16:50;;;;;;;21.13;12.10;;;;;;;11.71;73.73;99645.16;5012150;28;19928;-78
2023/02/23 12:19:25;;;;;;;23.85;13.05;;;;;;;11.68;73.45;99637.44;5012477;28;20512;-79
2023/02/23 12:22:01;;;;;;;23.63;13.23;;;;;;;11.67;73.59;99636.56;5012897;28;20086;-79
2023/02/23 12:24:49;;;;;;;23.30;13.05;;;;;;;11.64;73.32;99630.66;5012750;28;20439;-78
2023/02/23 12:27:40;;;;;;;21.02;11.50;;;;;;;11.64;73.55;99641.19;5011977;28;20061;-79
2023/02/23 12:30:26;;;;;;;24.83;13.43;;;;;;;11.64;73.73;99628.03;4994544;28;20052;-79
2023/02/23 12:33:01;;;;;;;23.40;13.93;;;;;;;11.66;73.72;99634.88;5012614;28;20057;-79
2023/02/23 12:35:39;;;;;;;25.73;12.65;;;;;;;11.66;73.48;99645.44;4994403;28;20061;-79
2023/02/23 12:38:12;;;;;;;28.73;14.70;;;;;;;11.66;73.62;99644.59;5011857;28;20050;-78
2023/02/23 12:40:43;;;;;;;24.52;13.60;;;;;;;11.66;73.91;99637.53;5012450;28;20050;-79
2023/02/23 12:43:18;;;;;;;24.67;13.80;;;;;;;11.65;73.45;99642.88;5012126;28;20514;-78
2023/02/23 12:45:51;;;;;;;27.85;14.23;;;;;;;11.63;73.44;99632.47;5011959;28;20133;-78
2023/02/23 12:48:47;;;;;;;27.80;14.25;;;;;;;11.62;73.61;99640.47;4994041;28;20100;-79
2023/02/23 12:51:33;;;;;;;25.70;13.98;;;;;;;11.61;73.21;99636.97;4975054;28;20054;-78
2023/02/23 12:54:00;;;;;;;24.42;13.52;;;;;;;11.65;73.82;99635.84;5012032;28;20054;-78
2023/02/23 12:56:45;;;;;;;28.17;14.45;;;;;;;11.65;73.55;99632.34;5011742;28;20130;-78
2023/02/23 12:59:38;;;;;;;25.80;14.50;;;;;;;11.59;72.82;99641.50;5010977;28;20096;-79
2023/02/23 13:02:17;;;;;;;23.58;13.15;;;;;;;11.58;72.87;99642.44;5011621;28;20450;-78